Time;durP1;ratioP1;P1;durP2;ratioP2;P2;SDS_P1;SDS_P2;PMS_P1;PMS_P2;Temp;Humidity;BMP_temperature;BMP_pressure;BME280_temperature;BME280_humidity;BME280_pressure;Samples;Min_cycle;Max_cycle;Signal;HPM_P1;HPM_P2
2022/09/01 00:01:54;;;;;;;6.30;5.90;;;17.10;87.30;;;18.34;66.85;98264.00;5022305;28;20469;-80
2022/09/01 00:04:25;;;;;;;6.30;5.80;;;17.00;87.40;;;18.23;67.66;98264.97;5023736;28;20478;-80
2022/09/01 00:06:54;;;;;;;6.60;6.10;;;17.00;88.10;;;18.04;68.23;98259.06;5023877;28;20468;-81
2022/09/01 00:09:23;;;;;;;5.97;5.53;;;16.90;88.40;;;18.03;68.35;98266.44;5023031;28;20503;-80
2022/09/01 00:11:55;;;;;;;7.00;6.50;;;16.90;88.50;;;18.05;67.96;98247.88;5045162;28;20458;-81
2022/09/01 00:14:26;;;;;;;7.57;6.23;;;16.90;88.50;;;17.95;68.20;98269.59;5022810;28;20483;-79
2022/09/01 00:16:54;;;;;;;7.27;6.67;;;16.70;88.80;;;17.48;68.05;98187.16;5025785;28;20482;-82
2022/09/01 00:19:22;;;;;;;7.23;6.53;;;16.70;89.30;;;17.70;69.21;98260.88;5026113;28;20560;-81
2022/09/01 00:21:49;;;;;;;7.30;6.70;;;16.50;89.70;;;17.75;69.23;98268.31;5020318;28;20848;-79
2022/09/01 00:24:18;;;;;;;8.93;6.67;;;16.40;90.40;;;17.56;70.16;98265.94;5025723;28;20480;-80
2022/09/01 00:26:46;;;;;;;8.20;7.60;;;16.30;90.90;;;17.55;70.03;98264.28;5024865;28;20481;-81
2022/09/01 00:29:15;;;;;;;6.80;6.23;;;16.30;90.80;;;17.84;69.26;98265.94;5021724;28;22606;-82
2022/09/01 00:31:43;;;;;;;6.90;6.40;;;16.40;90.80;;;17.67;69.67;98263.31;5024255;28;20501;-82
2022/09/01 00:34:11;;;;;;;6.60;6.13;;;16.40;90.70;;;17.63;69.71;98264.88;5027049;28;20452;-83
2022/09/01 00:36:38;;;;;;;6.77;6.27;;;16.30;91.10;;;17.73;69.32;98259.56;5025378;28;20538;-79
2022/09/01 00:39:07;;;;;;;6.90;6.33;;;16.30;91.00;;;17.55;69.84;98269.75;5029625;28;20452;-82
2022/09/01 00:41:38;;;;;;;7.93;6.27;;;16.30;91.10;;;17.67;69.22;98261.41;5025256;28;20462;-84
2022/09/01 00:44:10;;;;;;;7.90;7.20;;;16.30;91.00;;;17.75;69.14;98260.13;5017689;28;20483;-82
2022/09/01 00:46:45;;;;;;;6.50;6.00;;;16.30;90.90;;;17.89;68.89;98251.50;5024968;28;20494;-81
2022/09/01 00:49:16;;;;;;;6.63;6.10;;;16.40;90.80;;;17.83;69.26;98253.38;5036478;28;20476;-82
2022/09/01 00:51:47;;;;;;;5.90;5.50;;;16.50;90.80;;;17.83;69.03;98259.66;5022731;28;20508;-80
2022/09/01 00:54:22;;;;;;;7.50;6.90;;;16.50;90.60;;;17.64;69.36;98233.75;5022155;28;20491;-82
2022/09/01 00:56:50;;;;;;;5.90;5.50;;;16.50;90.80;;;17.84;69.39;98257.75;5027670;28;20485;-82
2022/09/01 00:59:21;;;;;;;7.33;6.73;;;16.60;90.70;;;17.82;69.92;98263.50;5023769;28;20465;-80
2022/09/01 01:01:50;;;;;;;7.50;6.87;;;16.60;91.10;;;17.79;69.88;98258.50;5023578;28;20455;-80
2022/09/01 01:04:18;;;;;;;7.87;7.17;;;16.60;91.00;;;17.85;69.53;98256.66;5021780;28;20535;-77
2022/09/01 01:06:57;;;;;;;7.60;7.10;;;16.70;90.60;;;17.69;69.97;98252.97;5022523;28;20461;-83
2022/09/01 01:09:27;;;;;;;7.47;6.87;;;16.60;90.50;;;17.86;69.46;98257.50;5018811;28;20466;-82
2022/09/01 01:11:56;;;;;;;7.10;6.53;;;16.60;90.50;;;17.73;69.94;98251.34;5018068;28;20450;-81
2022/09/01 01:14:26;;;;;;;7.40;6.77;;;16.60;90.50;;;17.83;69.55;98254.19;5027571;28;20908;-82
2022/09/01 01:16:55;;;;;;;7.20;6.60;;;16.60;90.60;;;17.84;69.69;98250.38;5026018;28;20557;-81
2022/09/01 01:25:22;;;;;;;7.33;6.73;;;16.60;90.70;;;17.92;69.52;98251.00;5026253;28;20485;-81
2022/09/01 01:27:50;;;;;;;7.23;6.73;;;16.70;90.80;;;17.90;69.58;98258.63;5025782;28;20457;-80
2022/09/01 01:30:19;;;;;;;7.33;6.73;;;16.70;90.70;;;17.89;69.59;98246.84;5022541;28;20523;-81
2022/09/01 01:32:48;;;;;;;7.97;7.33;;;16.70;90.60;;;17.71;70.22;98245.31;5005700;28;20680;-80
2022/09/01 01:35:19;;;;;;;7.80;7.20;;;16.60;90.70;;;17.82;69.82;98247.09;5022451;28;20858;-78
2022/09/01 01:37:47;;;;;;;7.90;7.20;;;16.70;90.80;;;17.98;69.37;98250.78;5026067;28;20456;-81
2022/09/01 01:40:21;;;;;;;7.90;7.30;;;16.70;90.90;;;17.96;69.41;98239.28;5022390;28;20460;-82
2022/09/01 01:42:53;;;;;;;7.67;7.03;;;16.70;90.90;;;17.75;70.11;98248.38;5025878;28;20452;-81
2022/09/01 01:45:25;;;;;;;7.73;7.00;;;16.60;91.10;;;17.82;70.03;98236.16;5027333;28;20492;-80
2022/09/01 01:47:54;;;;;;;7.60;7.00;;;16.60;91.10;;;17.72;70.46;98230.56;5041405;28;20584;-82
2022/09/01 01:50:25;;;;;;;8.87;7.47;;;16.60;91.40;;;17.72;70.27;98233.31;5047575;28;20453;-78
2022/09/01 01:52:53;;;;;;;7.13;6.57;;;16.50;91.50;;;17.75;70.53;98237.44;5037476;28;20489;-80
2022/09/01 01:55:26;;;;;;;7.83;7.13;;;16.40;91.60;;;17.58;71.14;98234.78;5032220;28;20476;-80
2022/09/01 01:57:55;;;;;;;8.17;7.47;;;16.30;92.00;;;17.46;71.60;98230.28;5027862;28;20462;-81
2022/09/01 02:00:25;;;;;;;7.80;7.10;;;16.20;92.30;;;17.36;71.50;98232.88;5027780;28;20471;-81
2022/09/01 02:02:54;;;;;;;7.90;7.10;;;16.20;92.20;;;17.38;71.12;98230.75;5016155;28;20456;-82
2022/09/01 02:05:24;;;;;;;7.40;6.80;;;16.10;91.90;;;17.26;71.38;98236.31;5026166;28;20479;-81
2022/09/01 02:07:58;;;;;;;8.53;7.77;;;16.00;92.30;;;17.19;72.09;98244.69;5021850;28;20548;-79
2022/09/01 02:10:30;;;;;;;8.10;7.27;;;16.00;92.60;;;17.20;72.10;98235.44;5032822;28;20995;-81
2022/09/01 02:13:03;;;;;;;7.77;7.13;;;15.80;93.50;;;17.13;72.04;98229.34;5023806;28;20469;-80
2022/09/01 02:15:30;;;;;;;9.07;8.40;;;15.70;94.10;;;16.52;72.48;98142.84;5025429;28;20543;-79
2022/09/01 02:17:59;;;;;;;8.00;7.30;;;15.70;94.00;;;17.07;72.78;98228.44;5027400;28;20454;-79
2022/09/01 02:20:28;;;;;;;8.60;8.00;;;15.70;94.30;;;16.95;73.28;98239.47;5025083;28;20464;-77
2022/09/01 02:22:55;;;;;;;8.47;7.77;;;15.60;94.80;;;16.89;73.37;98232.25;5026461;28;20448;-78
2022/09/01 02:25:23;;;;;;;8.93;8.10;;;15.60;94.90;;;16.85;73.73;98228.41;5025315;28;21149;-77
2022/09/01 02:27:54;;;;;;;8.47;7.77;;;15.50;94.80;;;16.69;73.92;98220.00;5029072;28;20508;-84
2022/09/01 02:30:25;;;;;;;9.40;8.50;;;15.50;94.90;;;16.76;74.21;98219.00;5032149;28;20496;-81
2022/09/01 02:32:54;;;;;;;9.57;8.60;;;15.50;95.00;;;16.42;74.63;98198.88;5031034;28;20572;-82
2022/09/01 02:35:22;;;;;;;8.77;8.07;;;15.30;95.40;;;16.41;75.29;98212.75;5020438;28;20489;-82
2022/09/01 02:37:54;;;;;;;8.30;7.60;;;15.30;96.00;;;16.46;75.18;98217.47;5046877;28;20457;-83
2022/09/01 02:40:21;;;;;;;9.00;8.10;;;15.20;96.60;;;16.43;74.95;98216.88;5029344;28;20448;-81
2022/09/01 02:42:51;;;;;;;8.63;7.83;;;15.10;97.00;;;16.46;75.12;98215.56;5031219;28;20459;-82
2022/09/01 02:45:19;;;;;;;9.50;8.80;;;15.00;97.60;;;16.40;74.96;98217.38;5031730;28;20984;-80
2022/09/01 02:47:47;;;;;;;9.10;8.40;;;15.00;97.20;;;16.14;75.85;98213.41;5039006;28;20440;-82
2022/09/01 02:50:17;;;;;;;12.17;8.40;;;15.00;97.20;;;16.07;76.34;98212.72;5028873;28;20566;-82
2022/09/01 02:52:47;;;;;;;9.63;8.83;;;14.90;97.10;;;16.18;75.77;98208.31;5027598;28;20460;-84
2022/09/01 02:55:20;;;;;;;9.80;9.00;;;14.90;97.40;;;15.99;75.95;98197.63;5027324;28;20896;-82
2022/09/01 02:57:49;;;;;;;9.50;8.80;;;14.90;97.30;;;16.08;75.97;98220.69;5018609;28;20520;-82
2022/09/01 03:00:27;;;;;;;9.40;8.67;;;14.70;98.50;;;16.07;76.09;98218.19;5026295;28;20467;-82
2022/09/01 03:02:59;;;;;;;9.23;8.47;;;14.70;99.30;;;16.06;76.32;98211.94;5021121;28;20490;-82
2022/09/01 03:05:29;;;;;;;9.77;8.97;;;14.70;99.20;;;15.94;77.20;98208.44;5031564;28;20466;-79
2022/09/01 03:08:01;;;;;;;9.80;9.00;;;14.60;99.90;;;15.96;76.66;98209.03;5026622;28;20450;-80
2022/09/01 03:10:31;;;;;;;10.90;10.00;;;14.60;99.90;;;15.84;77.44;98204.41;5019850;28;20465;-83
2022/09/01 03:13:00;;;;;;;9.80;9.10;;;14.60;99.90;;;15.78;77.41;98199.97;5031296;28;20465;-84
2022/09/01 03:15:28;;;;;;;10.33;9.30;;;14.60;99.90;;;15.74;77.13;98193.38;5026091;28;20527;-83
2022/09/01 03:17:59;;;;;;;11.03;10.13;;;14.50;99.90;;;15.83;77.88;98202.78;5022804;28;20503;-82
2022/09/01 03:20:30;;;;;;;10.50;9.60;;;14.50;99.90;;;15.88;77.15;98202.03;5017280;28;20550;-78
2022/09/01 03:22:58;;;;;;;11.23;10.33;;;14.40;99.90;;;15.82;77.48;98198.41;5017910;28;20455;-82
2022/09/01 03:25:26;;;;;;;10.60;9.70;;;14.50;99.90;;;15.36;77.79;98129.50;5018527;28;20476;-82
2022/09/01 03:27:53;;;;;;;12.20;11.10;;;14.50;99.90;;;15.50;79.10;98188.00;5020012;28;20940;-79
2022/09/01 03:30:21;;;;;;;11.80;10.83;;;14.50;99.90;;;15.54;79.67;98196.53;5037884;28;20506;-82
2022/09/01 03:32:48;;;;;;;14.50;11.00;;;14.60;99.90;;;15.17;79.29;98124.25;5018234;28;20557;-82
2022/09/01 03:35:17;;;;;;;11.77;10.70;;;14.60;99.90;;;15.82;78.03;98206.56;5020418;28;20461;-85
2022/09/01 03:37:44;;;;;;;12.00;10.97;;;14.60;99.90;;;15.72;78.38;98187.34;5023183;28;20492;-84
2022/09/01 03:40:14;;;;;;;11.83;10.73;;;14.50;99.90;;;15.75;78.45;98192.28;5038096;28;20475;-81
2022/09/01 03:42:42;;;;;;;11.50;10.60;;;14.60;99.90;;;15.63;78.61;98189.63;5025943;28;20485;-86
2022/09/01 03:45:15;;;;;;;11.40;10.50;;;14.50;99.90;;;15.37;78.63;98155.63;5025377;28;20484;-80
2022/09/01 03:47:43;;;;;;;11.87;10.97;;;14.40;99.90;;;15.46;79.53;98203.19;5017828;28;20488;-81
2022/09/01 03:50:21;;;;;;;12.13;11.03;;;14.40;99.90;;;15.44;79.78;98205.34;5028816;28;20520;-81
2022/09/01 03:52:51;;;;;;;11.30;10.40;;;14.40;99.90;;;15.37;79.61;98205.47;5024659;28;21288;-81
2022/09/01 03:55:22;;;;;;;10.93;10.00;;;14.30;99.90;;;14.87;79.61;98117.97;5027035;28;20551;-80
2022/09/01 03:57:50;;;;;;;11.17;10.27;;;14.40;99.90;;;15.39;80.49;98191.59;5027125;28;20501;-82
2022/09/01 04:00:21;;;;;;;11.07;10.17;;;14.50;99.90;;;15.47;79.75;98199.41;5046527;28;20458;-81
2022/09/01 04:02:51;;;;;;;12.00;10.77;;;14.40;99.90;;;15.46;79.98;98191.47;5021975;28;20471;-81
2022/09/01 04:05:21;;;;;;;10.97;9.97;;;14.40;99.90;;;15.36;80.19;98192.09;5020513;28;20533;-80
2022/09/01 04:07:49;;;;;;;10.40;9.50;;;14.30;99.90;;;15.25;79.54;98181.03;5019878;28;20544;-80
2022/09/01 04:10:18;;;;;;;10.50;9.70;;;14.30;99.90;;;15.39;79.61;98199.78;5034976;28;21344;-81
2022/09/01 04:12:46;;;;;;;10.43;9.50;;;14.30;99.90;;;15.33;80.06;98203.47;5024340;28;20466;-80
2022/09/01 04:15:16;;;;;;;10.93;10.00;;;14.30;99.90;;;15.33;79.63;98198.88;5021478;28;20542;-84
2022/09/01 04:20:38;;;;;;;10.60;9.70;;;14.20;99.90;;;15.20;79.94;98194.50;5014547;28;20463;-81
2022/09/01 04:23:09;;;;;;;10.33;9.43;;;14.20;99.90;;;15.13;80.35;98193.84;5021754;28;20468;-82
2022/09/01 04:25:37;;;;;;;10.50;9.50;;;14.10;99.90;;;15.08;80.45;98199.16;5014945;28;20480;-79
2022/09/01 04:28:11;;;;;;;10.47;9.47;;;14.10;99.90;;;15.18;79.82;98199.38;5025258;28;20497;-80
2022/09/01 04:30:39;;;;;;;12.17;10.97;;;14.10;99.90;;;15.28;79.22;98185.97;5010316;28;20469;-79
2022/09/01 04:33:06;;;;;;;11.70;10.60;;;14.10;99.90;;;15.28;79.33;98196.88;5024391;28;20491;-81
2022/09/01 04:35:39;;;;;;;8.60;7.90;;;14.10;99.90;;;15.13;79.74;98204.72;5013111;28;20547;-82
2022/09/01 04:38:08;;;;;;;11.23;9.97;;;14.10;99.90;;;14.75;79.63;98138.09;5023177;28;20467;-79
2022/09/01 04:40:39;;;;;;;11.00;9.93;;;14.00;99.90;;;15.18;79.28;98212.19;5021305;28;20570;-79
2022/09/01 04:43:06;;;;;;;10.90;10.00;;;14.10;99.90;;;14.89;79.44;98172.13;5018759;28;20937;-83
2022/09/01 04:45:36;;;;;;;9.43;8.53;;;14.00;99.90;;;15.23;78.86;98213.09;5039965;28;20489;-75
2022/09/01 04:48:04;;;;;;;9.90;8.87;;;14.10;99.90;;;14.91;79.18;98202.63;5036686;28;20458;-79
2022/09/01 04:50:33;;;;;;;9.70;8.87;;;14.10;99.30;;;15.17;78.45;98216.78;5045028;28;20471;-72
2022/09/01 04:53:05;;;;;;;8.30;7.60;;;14.20;98.30;;;15.30;77.45;98219.22;5041891;28;20846;-80
2022/09/01 04:55:32;;;;;;;9.30;8.60;;;14.30;96.80;;;15.30;76.87;98211.06;5016646;28;20460;-88
2022/09/01 04:58:03;;;;;;;8.90;8.20;;;14.50;95.50;;;14.93;76.84;98146.09;5023290;28;20607;-85
2022/09/01 05:00:31;;;;;;;8.70;8.00;;;14.60;95.00;;;15.39;76.71;98216.94;5044311;28;20526;-86
2022/09/01 05:03:03;;;;;;;7.47;6.97;;;14.60;94.80;;;15.74;75.14;98215.16;5044080;28;20459;-85
2022/09/01 05:05:41;;;;;;;7.63;7.03;;;14.80;94.10;;;15.78;74.59;98216.31;5038593;28;20481;-77
2022/09/01 05:08:13;;;;;;;8.23;7.53;;;15.00;93.20;;;15.78;74.28;98202.69;5017816;28;20454;-86
2022/09/01 05:10:43;;;;;;;8.33;7.63;;;15.10;92.50;;;15.87;74.43;98227.63;5029509;28;20457;-87
2022/09/01 05:13:13;;;;;;;23.93;10.53;;;15.20;92.10;;;16.10;73.97;98221.25;5027330;28;20469;-87
2022/09/01 05:15:45;;;;;;;8.33;7.53;;;15.40;92.10;;;16.42;72.14;98215.22;5033276;28;20462;-86
2022/09/01 05:18:14;;;;;;;8.87;8.17;;;15.50;91.20;;;16.63;70.96;98221.00;5027479;28;20545;-89
2022/09/01 05:20:42;;;;;;;6.80;6.30;;;15.80;90.20;;;16.80;70.14;98217.41;5033487;28;20459;-82
2022/09/01 05:23:13;;;;;;;6.93;6.43;;;16.00;89.60;;;17.09;69.18;98218.09;5029088;28;21031;-84
2022/09/01 05:25:42;;;;;;;7.70;7.00;;;16.20;88.80;;;17.30;68.20;98220.25;5028359;28;20480;-76
2022/09/01 05:28:11;;;;;;;7.33;6.70;;;16.40;87.60;;;17.18;68.20;98229.41;5036393;28;20518;-84
2022/09/01 05:30:41;;;;;;;6.60;6.00;;;16.50;86.60;;;17.46;67.10;98232.22;5047068;28;20519;-90
2022/09/01 05:33:10;;;;;;;7.07;6.33;;;16.70;86.30;;;17.12;67.17;98163.00;5033718;28;20465;-86
2022/09/01 05:35:43;;;;;;;6.30;5.80;;;16.80;85.80;;;17.46;66.89;98205.72;5036625;28;20454;-85
2022/09/01 05:38:14;;;;;;;8.10;7.30;;;16.80;85.90;;;16.65;68.99;98169.75;5037009;28;20452;-89
2022/09/01 05:40:42;;;;;;;8.07;7.10;;;16.40;86.50;;;16.33;70.39;98192.19;5033866;28;20457;-84
2022/09/01 05:43:12;;;;;;;7.83;7.23;;;15.90;87.80;;;16.53;70.59;98223.56;5053058;28;20456;-84
2022/09/01 05:45:44;;;;;;;7.00;6.40;;;15.60;89.00;;;16.40;70.65;98228.28;5037020;28;20556;-91
2022/09/01 05:48:20;;;;;;;8.00;6.70;;;15.50;89.50;;;16.52;70.56;98224.66;5042794;28;20459;-70
2022/09/01 05:50:48;;;;;;;7.00;6.50;;;15.50;90.10;;;16.53;70.12;98220.84;5034574;28;20961;-85
2022/09/01 05:53:17;;;;;;;7.33;6.73;;;15.60;89.40;;;16.31;70.37;98227.06;5030129;28;20467;-80
2022/09/01 05:55:45;;;;;;;6.73;6.13;;;15.50;89.30;;;16.37;70.31;98223.31;5031551;28;20459;-77
2022/09/01 05:58:15;;;;;;;6.57;6.07;;;15.60;89.00;;;16.51;69.72;98231.97;5033942;28;20483;-74
2022/09/01 06:00:46;;;;;;;6.40;5.80;;;15.60;88.60;;;16.41;69.90;98238.09;5032610;28;20465;-85
2022/09/01 06:03:14;;;;;;;6.80;6.30;;;15.60;88.20;;;16.64;68.92;98192.66;5026828;28;20462;-84
2022/09/01 06:05:43;;;;;;;7.73;6.00;;;15.90;88.40;;;16.79;67.96;98216.56;5031704;28;20471;-78
2022/09/01 06:08:12;;;;;;;6.10;5.60;;;15.90;86.80;;;16.98;67.36;98222.56;5042125;28;20537;-86
2022/09/01 06:10:42;;;;;;;5.90;5.30;;;16.00;86.40;;;17.01;67.72;98231.38;5053285;28;20454;-84
2022/09/01 06:13:10;;;;;;;6.83;5.40;;;16.00;86.60;;;16.86;67.48;98235.50;5033403;28;20443;-89
2022/09/01 06:15:38;;;;;;;5.77;5.37;;;16.00;86.20;;;16.82;67.76;98228.91;5031903;28;21666;-80
2022/09/01 06:18:07;;;;;;;6.37;5.90;;;16.00;86.30;;;16.71;67.75;98241.56;5038291;28;20497;-80
2022/09/01 06:20:40;;;;;;;6.30;5.50;;;15.90;86.00;;;16.52;68.06;98241.81;5048678;28;20469;-71
2022/09/01 06:23:07;;;;;;;6.60;6.10;;;15.80;85.90;;;16.64;68.04;98239.03;5043456;28;20474;-80
2022/09/01 06:25:38;;;;;;;6.17;5.67;;;15.80;86.40;;;16.79;67.37;98243.06;5049730;28;20534;-77
2022/09/01 06:28:07;;;;;;;6.27;5.77;;;15.90;85.90;;;16.51;67.96;98239.34;5045743;28;20463;-77
2022/09/01 06:30:35;;;;;;;5.73;5.33;;;15.90;85.50;;;16.70;67.33;98242.66;5107722;22;20482;-73
2022/09/01 06:33:08;;;;;;;7.73;4.80;;;15.90;85.70;;;16.80;66.87;98250.97;5049474;28;20455;-79
2022/09/01 06:35:36;;;;;;;5.53;5.03;;;16.00;85.10;;;16.76;66.13;98186.28;5049170;28;20489;-77
2022/09/01 06:38:03;;;;;;;5.60;5.10;;;16.20;85.10;;;17.23;65.65;98251.31;5057786;28;20438;-76
2022/09/01 06:40:31;;;;;;;5.57;5.17;;;16.30;84.60;;;17.07;65.72;98244.81;5064493;28;20493;-72
2022/09/01 06:43:01;;;;;;;6.40;5.80;;;16.30;84.30;;;17.25;65.72;98243.72;5054562;28;20477;-75
2022/09/01 06:45:29;;;;;;;6.00;5.50;;;16.30;84.40;;;17.19;65.63;98260.28;5057414;28;20459;-89
2022/09/01 06:47:56;;;;;;;6.07;5.40;;;16.40;84.20;;;16.99;65.80;98254.28;5029148;28;20517;-88
2022/09/01 06:50:24;;;;;;;6.63;5.17;;;16.40;83.90;;;17.23;65.65;98251.31;5034609;28;20554;-84
2022/09/01 06:53:02;;;;;;;5.40;4.90;;;16.30;84.20;;;17.54;64.52;98246.25;5033661;28;20486;-78
2022/09/01 06:55:32;;;;;;;5.53;5.10;;;16.50;84.20;;;17.54;63.98;98246.25;5046930;28;20479;-84
2022/09/01 06:58:03;;;;;;;5.90;5.27;;;16.60;83.70;;;17.56;64.53;98251.44;5050136;28;20455;-81
2022/09/01 07:00:31;;;;;;;5.43;4.93;;;16.60;83.80;;;17.77;63.79;98244.28;5046831;28;20458;-81
2022/09/01 07:02:59;;;;;;;5.53;5.03;;;16.70;83.80;;;17.72;63.58;98252.44;5030849;28;20552;-89
2022/09/01 07:05:26;;;;;;;4.90;4.60;;;16.80;83.40;;;17.49;64.21;98248.88;5040660;28;20489;-87
2022/09/01 07:07:55;;;;;;;5.70;5.20;;;16.80;83.10;;;17.94;63.79;98254.28;5048612;28;20465;-81
2022/09/01 07:10:24;;;;;;;5.87;5.27;;;16.80;83.60;;;18.18;62.68;98243.06;5054125;28;21032;-83
2022/09/01 07:12:54;;;;;;;5.33;4.93;;;17.10;83.20;;;17.82;63.48;98260.75;5054436;28;20469;-85
2022/09/01 07:15:22;;;;;;;5.87;5.27;;;17.10;82.80;;;18.19;62.68;98261.13;5043602;28;20576;-75
2022/09/01 07:17:54;;;;;;;5.33;4.90;;;17.20;83.10;;;18.21;62.40;98258.94;5050727;28;20455;-85
2022/09/01 07:20:26;;;;;;;5.30;4.80;;;17.30;82.80;;;17.93;62.53;98203.44;5064223;28;20462;-69
2022/09/01 07:22:54;;;;;;;5.27;4.73;;;17.30;82.70;;;18.78;61.26;98256.66;5072364;28;20491;-73
2022/09/01 07:25:22;;;;;;;5.40;4.60;;;17.60;82.40;;;18.95;60.77;98256.47;5063559;28;20460;-93
2022/09/01 07:27:49;;;;;;;4.57;4.17;;;17.80;82.10;;;19.04;59.93;98254.94;5046414;28;20545;-79
2022/09/01 07:30:19;;;;;;;5.03;4.53;;;18.00;81.30;;;18.76;59.80;98228.75;5036488;28;20460;-77
2022/09/01 07:32:49;;;;;;;5.23;4.83;;;18.10;80.60;;;19.24;59.62;98261.59;5026934;28;20472;-73
2022/09/01 07:35:22;;;;;;;5.60;5.10;;;18.20;81.00;;;19.15;58.96;98266.75;5043219;28;20461;-75
2022/09/01 07:37:50;;;;;;;5.50;4.93;;;18.30;80.00;;;19.17;58.73;98271.97;5042821;28;20460;-76
2022/09/01 07:40:21;;;;;;;5.70;4.40;;;18.30;79.80;;;18.92;59.24;98266.06;5022492;28;20455;-80
2022/09/01 07:42:56;;;;;;;5.30;4.80;;;18.20;79.60;;;18.15;59.97;98189.72;5024899;28;20454;-80
2022/09/01 07:45:24;;;;;;;5.83;5.33;;;18.10;79.70;;;18.64;59.43;98262.59;5012639;28;20464;-76
2022/09/01 07:47:52;;;;;;;6.20;5.70;;;18.10;79.40;;;18.33;59.85;98202.19;5047157;28;20475;-85
2022/09/01 07:50:27;;;;;;;6.23;5.20;;;18.10;79.70;;;19.52;58.29;98279.53;5042836;28;20519;-86
2022/09/01 07:52:54;;;;;;;4.90;4.50;;;18.40;79.70;;;20.02;56.74;98265.47;5026267;28;20460;-82
2022/09/01 07:55:22;;;;;;;6.33;5.77;;;18.90;79.10;;;20.17;56.39;98269.31;5041472;28;20461;-75
2022/09/01 07:57:50;;;;;;;5.20;4.70;;;19.20;78.40;;;20.06;55.94;98274.78;5050251;28;20463;-78
2022/09/01 08:00:20;;;;;;;5.40;5.00;;;19.40;77.40;;;20.15;55.65;98266.84;5052528;28;20478;-77
2022/09/01 08:02:49;;;;;;;5.30;4.90;;;19.30;77.00;;;19.81;56.36;98267.28;5053043;28;20454;-80
2022/09/01 08:05:21;;;;;;;5.30;4.90;;;19.20;76.80;;;19.81;56.36;98268.13;5022963;28;20458;-79
2022/09/01 08:07:49;;;;;;;5.27;4.77;;;19.10;77.00;;;19.53;57.22;98272.97;5026303;28;20476;-76
2022/09/01 08:10:17;;;;;;;7.30;5.17;;;18.90;77.10;;;19.97;56.33;98270.94;5026705;28;20471;-76
2022/09/01 08:12:44;;;;;;;6.57;5.67;;;19.00;77.50;;;19.85;56.56;98278.56;5023672;28;20453;-77
2022/09/01 08:15:12;;;;;;;5.80;5.30;;;19.00;77.00;;;19.78;55.83;98276.06;5024269;28;20557;-81
2022/09/01 08:17:41;;;;;;;5.20;4.83;;;19.00;76.60;;;20.03;55.61;98272.59;5027004;28;20457;-77
2022/09/01 08:20:10;;;;;;;4.80;4.40;;;19.10;76.70;;;20.00;55.41;98223.78;5039442;28;20475;-81
2022/09/01 08:22:38;;;;;;;5.93;4.90;;;19.20;76.90;;;20.53;55.02;98258.34;5045505;28;20460;-81
2022/09/01 08:25:09;;;;;;;5.37;4.97;;;19.40;76.70;;;20.84;53.75;98263.03;5040312;28;20497;-79
2022/09/01 08:27:38;;;;;;;5.83;5.23;;;19.70;76.20;;;20.59;54.19;98260.00;5017782;28;21013;-77
2022/09/01 08:30:10;;;;;;;4.70;4.30;;;19.60;75.70;;;20.24;55.51;98269.84;5038236;28;20493;-75
2022/09/01 08:32:40;;;;;;;5.50;5.00;;;19.30;76.20;;;20.42;55.03;98262.22;5035890;28;20971;-74
2022/09/01 08:35:10;;;;;;;4.77;4.47;;;19.40;76.30;;;20.45;54.62;98275.38;5038788;28;20885;-79
2022/09/01 08:37:37;;;;;;;5.17;4.87;;;19.40;75.90;;;20.10;55.50;98281.38;5034663;28;20980;-81
2022/09/01 08:40:10;;;;;;;10.70;4.83;;;19.30;75.80;;;20.37;55.48;98280.28;5041999;28;20595;-77
2022/09/01 08:42:53;;;;;;;4.53;4.13;;;19.30;76.40;;;20.60;55.05;98282.78;5036964;28;20459;-80
2022/09/01 08:45:25;;;;;;;5.83;5.33;;;19.50;76.40;;;20.81;53.72;98272.63;5036543;28;20454;-80
2022/09/01 08:47:56;;;;;;;6.10;5.00;;;19.70;75.50;;;20.29;53.53;98277.28;5033342;28;20507;-76
2022/09/01 08:50:23;;;;;;;4.30;4.00;;;19.60;74.20;;;20.08;55.05;98277.25;5040239;28;20478;-79
2022/09/01 08:52:59;;;;;;;4.30;4.00;;;19.30;74.80;;;20.30;54.52;98279.75;5035833;28;20472;-81
2022/09/01 08:55:37;;;;;;;4.97;3.90;;;19.40;75.40;;;20.64;54.25;98270.97;5020068;28;20448;-75
2022/09/01 08:58:05;;;;;;;5.10;4.70;;;19.50;75.50;;;20.69;54.13;98274.81;5040279;28;20771;-79
2022/09/01 09:00:43;;;;;;;4.50;4.20;;;19.60;75.00;;;20.86;52.99;98285.53;5042543;28;20948;-79
2022/09/01 09:03:21;;;;;;;4.63;4.33;;;19.80;74.80;;;20.99;52.67;98284.13;5036143;28;20450;-81
2022/09/01 09:06:06;;;;;;;4.77;4.37;;;19.90;74.10;;;20.86;52.12;98280.88;5020303;28;20453;-76
2022/09/01 09:08:56;;;;;;;5.33;4.90;;;19.90;73.40;;;21.07;52.12;98276.16;5032199;28;20461;-77
2022/09/01 09:11:53;;;;;;;4.23;3.93;;;19.90;73.50;;;21.33;51.69;98269.78;5029626;28;20473;-78
2022/09/01 09:14:38;;;;;;;4.40;4.10;;;20.10;73.50;;;21.71;50.56;98272.13;5035861;28;20534;-81
2022/09/01 09:17:05;;;;;;;4.93;4.53;;;20.40;72.90;;;21.16;51.21;98281.91;5041344;28;20458;-80
2022/09/01 09:19:36;;;;;;;4.83;4.30;;;20.40;72.20;;;21.29;51.09;98285.16;5039867;28;20454;-76
2022/09/01 09:22:09;;;;;;;4.70;4.30;;;20.30;72.50;;;21.04;51.60;98276.69;5033325;28;20463;-77
2022/09/01 09:24:49;;;;;;;4.70;4.30;;;20.20;72.40;;;21.06;52.17;98279.19;5038594;28;20559;-79
2022/09/01 09:27:27;;;;;;;4.73;4.23;;;20.10;72.80;;;21.31;50.79;98280.22;5021080;28;20467;-80
2022/09/01 09:29:57;;;;;;;4.13;3.83;;;20.30;71.70;;;21.69;50.32;98280.63;5036752;28;20463;-80
2022/09/01 09:32:43;;;;;;;4.40;4.00;;;20.40;71.90;;;21.66;49.83;98281.22;5035837;28;20487;-76
2022/09/01 09:35:22;;;;;;;4.60;4.27;;;20.50;71.30;;;21.49;49.66;98268.59;5024545;28;20489;-78
2022/09/01 09:37:49;;;;;;;4.87;3.80;;;20.50;70.80;;;21.51;49.71;98277.41;5040521;28;20487;-78
2022/09/01 09:40:20;;;;;;;4.10;3.80;;;20.50;70.80;;;21.54;49.61;98278.75;5029727;28;20463;-79
2022/09/01 09:43:06;;;;;;;5.60;4.00;;;20.50;70.50;;;21.64;48.86;98278.69;5037144;28;20507;-75
2022/09/01 09:45:37;;;;;;;3.60;3.40;;;20.70;69.60;;;22.28;48.06;98274.50;5027087;28;20466;-78
2022/09/01 09:48:09;;;;;;;4.10;3.70;;;20.90;69.80;;;22.26;47.42;98277.56;5037720;28;20478;-80
2022/09/01 09:50:39;;;;;;;4.53;4.13;;;21.00;68.90;;;22.75;46.89;98272.22;5049719;28;20447;-82
2022/09/01 09:53:22;;;;;;;4.60;3.60;;;21.40;69.30;;;22.51;47.04;98278.47;5023207;28;20463;-77
2022/09/01 09:55:58;;;;;;;4.70;4.17;;;21.40;68.50;;;22.02;47.88;98275.50;5041048;28;20454;-75
2022/09/01 09:58:35;;;;;;;4.27;3.93;;;21.30;68.10;;;22.03;47.72;98268.88;5025911;28;20448;-79
2022/09/01 10:01:09;;;;;;;4.33;3.67;;;21.10;68.00;;;22.26;47.45;98269.31;5048658;28;20486;-74
2022/09/01 10:03:41;;;;;;;4.60;3.67;;;21.30;67.90;;;22.85;46.80;98271.31;5028626;28;20543;-71
2022/09/01 10:06:32;;;;;;;3.83;3.53;;;21.50;68.30;;;23.37;45.23;98263.34;5048216;28;20457;-72
2022/09/01 10:09:02;;;;;;;3.47;3.17;;;21.90;67.40;;;23.11;44.44;98260.84;5043846;28;20545;-82
2022/09/01 10:11:36;;;;;;;3.57;3.27;;;22.00;65.70;;;23.35;43.42;98257.31;5041917;28;20464;-80
2022/09/01 10:14:10;;;;;;;3.40;3.20;;;22.20;64.80;;;23.32;43.42;98257.91;5042363;28;20531;-72
2022/09/01 10:16:41;;;;;;;3.60;3.30;;;22.30;64.20;;;23.43;43.68;98248.41;5039019;28;20469;-79
2022/09/01 10:19:13;;;;;;;3.83;3.53;;;22.30;64.30;;;23.81;42.40;98260.59;5022934;28;20546;-77
2022/09/01 10:21:44;;;;;;;3.83;3.53;;;22.60;63.60;;;23.58;42.27;98261.16;5034160;28;20461;-77
2022/09/01 10:24:20;;;;;;;3.87;3.40;;;22.50;62.60;;;23.62;42.12;98256.69;5030619;28;20576;-78
2022/09/01 10:26:53;;;;;;;3.57;3.27;;;22.70;62.40;;;23.48;41.77;98262.09;5029132;28;20471;-77
2022/09/01 10:29:26;;;;;;;3.30;3.10;;;22.70;61.50;;;23.76;41.74;98259.53;5045020;28;20476;-80
2022/09/01 10:31:55;;;;;;;3.33;3.03;;;22.80;61.50;;;23.92;41.75;98260.13;5042140;28;20798;-76
2022/09/01 10:34:24;;;;;;;3.70;3.40;;;22.90;61.70;;;24.16;41.16;98237.19;5046233;28;20460;-78
2022/09/01 10:36:51;;;;;;;2.97;2.77;;;23.00;61.60;;;24.93;39.07;98256.34;5055787;28;20571;-77
2022/09/01 10:39:20;;;;;;;3.00;2.80;;;23.40;60.20;;;23.84;40.62;98254.47;5048151;28;20471;-79
2022/09/01 10:41:55;;;;;;;3.00;2.80;;;23.00;59.30;;;24.22;40.61;98259.19;5024172;28;20465;-78